Historique des stations

Station météo de Mainvilliers

Altitude de la station : 298 m







Données météorologiques pour le 27/01/2022
Date
Heure
Températures Humidité Point de rosée Vitesse
du vent
Direction Rafales Windchill Pression Pluviométrie
Cumul
Date
Heure
Températures Humidité Point de rosée Vitesse
du vent
Direction Rafales Windchill Pression Pluviométrie
Cumul
27/01/2022 10:012.4 °C94 %1.7 °C10 km/hSSO11 km/h-0.6 1033 hPa-
27/01/2022 10:002.3 °C94 %1.7 °C10 km/hSO16 km/h-0.6 1033 hPa-
27/01/2022 09:462.3 °C94 %1.7 °C6 km/hSSO11 km/h0.6 1033 hPa-
27/01/2022 09:452.3 °C94 %1.7 °C5 km/hSSO16 km/h1.1 1033 hPa-
27/01/2022 09:312.2 °C94 %1.7 °C5 km/hSSO13 km/h1.1 1033 hPa-
27/01/2022 09:302.2 °C94 %1.1 °C10 km/hSSO16 km/h-0.6 1034 hPa-
27/01/2022 09:162.1 °C94 %1.1 °C6 km/hSSO11 km/h0.6 1033 hPa-
27/01/2022 09:112.1 °C94 %1.1 °C6 km/hSSO16 km/h0.6 1033 hPa-
27/01/2022 09:011.9 °C94 %1.1 °C10 km/hSO11 km/h-0.6 1033 hPa-
27/01/2022 09:001.9 °C94 %1.1 °C6 km/hSSO16 km/h0.6 1033 hPa-
27/01/2022 08:461.8 °C94 %1.1 °C8 km/hSSO13 km/h-1.1 1033 hPa-
27/01/2022 08:451.8 °C94 %1.1 °C6 km/hSSO16 km/h0.0 1033 hPa-
27/01/2022 08:311.7 °C94 %1.1 °C3 km/hS11 km/h0.6 1033 hPa-
27/01/2022 08:261.7 °C94 %1.1 °C3 km/hS16 km/h0.6 1033 hPa-
27/01/2022 08:161.7 °C94 %1.1 °C5 km/hSSO13 km/h0.6 1033 hPa-
27/01/2022 08:111.7 °C94 %1.1 °C10 km/hSSO16 km/h-1.1 1033 hPa-
27/01/2022 08:011.6 °C94 %0.6 °C6 km/hSO13 km/h0.0 1033 hPa-
27/01/2022 08:001.6 °C94 %0.6 °C3 km/hSSO16 km/h0.6 1033 hPa-
27/01/2022 07:461.7 °C94 %1.1 °C6 km/hSO14 km/h0.0 1033 hPa-
27/01/2022 07:411.6 °C94 %0.6 °C5 km/hS16 km/h0.6 1033 hPa-
27/01/2022 07:311.6 °C94 %0.6 °C11 km/hSSO13 km/h-1.1 1033 hPa-
27/01/2022 07:301.6 °C94 %0.6 °C5 km/hSSO16 km/h0.6 1033 hPa-
27/01/2022 07:161.6 °C94 %0.6 °C10 km/hSSO16 km/h-1.1 1033 hPa-
27/01/2022 07:111.6 °C94 %0.6 °C8 km/hSO16 km/h-1.1 1033 hPa-
27/01/2022 07:011.6 °C94 %0.6 °C10 km/hSSO16 km/h-1.1 1033 hPa-
27/01/2022 07:001.6 °C94 %0.6 °C5 km/hS16 km/h0.6 1033 hPa-
27/01/2022 06:461.6 °C94 %0.6 °C6 km/hSSO14 km/h0.0 1033 hPa-
27/01/2022 06:411.6 °C94 %0.6 °C10 km/hSSO16 km/h-1.1 1033 hPa-
27/01/2022 06:311.6 °C94 %0.6 °C5 km/hSSO13 km/h0.6 1033 hPa-
27/01/2022 06:261.6 °C94 %0.6 °C10 km/hSSO16 km/h-1.1 1033 hPa-
27/01/2022 06:161.6 °C94 %0.6 °C5 km/hSSO13 km/h0.6 1033 hPa-
27/01/2022 06:151.6 °C94 %0.6 °C11 km/hSSO16 km/h-1.1 1033 hPa-
27/01/2022 06:011.6 °C95 %1.1 °C8 km/hS16 km/h-1.1 1033 hPa-
27/01/2022 06:001.6 °C95 %1.1 °C8 km/hSSO13 km/h-1.1 1033 hPa-
27/01/2022 05:461.6 °C95 %1.1 °C6 km/hSSO13 km/h0.0 1033 hPa-
27/01/2022 05:411.6 °C95 %1.1 °C6 km/hS13 km/h0.0 1033 hPa-
27/01/2022 05:311.5 °C94 %0.6 °C8 km/hSSO13 km/h-1.1 1033 hPa-
27/01/2022 05:261.4 °C94 %0.6 °C6 km/hSO13 km/h0.0 1033 hPa-
27/01/2022 05:161.5 °C94 %0.6 °C6 km/hSSO13 km/h0.0 1033 hPa-
27/01/2022 05:111.4 °C94 %0.6 °C6 km/hSSO13 km/h0.0 1033 hPa-
27/01/2022 05:011.5 °C94 %0.6 °C8 km/hS13 km/h-1.1 1033 hPa-
27/01/2022 05:001.5 °C94 %0.6 °C10 km/hS13 km/h-1.1 1033 hPa-
27/01/2022 04:461.6 °C94 %0.6 °C6 km/hSSO10 km/h0.0 1033 hPa-
27/01/2022 04:411.6 °C95 %1.1 °C5 km/hSSO11 km/h0.6 1033 hPa-
27/01/2022 04:311.6 °C95 %1.1 °C5 km/hS10 km/h0.6 1033 hPa-
27/01/2022 04:261.6 °C95 %1.1 °C5 km/hSSE11 km/h0.6 1033 hPa-
27/01/2022 04:161.6 °C95 %1.1 °C-SSE10 km/h1.7 1033 hPa-
27/01/2022 04:111.6 °C95 %1.1 °C6 km/hSSE11 km/h0.0 1033 hPa-
27/01/2022 04:011.5 °C95 %1.1 °C6 km/hSSE10 km/h0.0 1033 hPa-
27/01/2022 04:001.5 °C95 %1.1 °C10 km/hSSE11 km/h-1.1 1033 hPa-
27/01/2022 03:461.6 °C95 %1.1 °C8 km/hSSE11 km/h-1.1 1033 hPa-
27/01/2022 03:411.6 °C95 %1.1 °C8 km/hS10 km/h-1.1 1033 hPa-
27/01/2022 03:311.6 °C95 %1.1 °C3 km/hS8 km/h0.6 1033 hPa-
27/01/2022 03:261.6 °C95 %1.1 °C3 km/hS10 km/h0.6 1033 hPa-
27/01/2022 03:161.6 °C95 %1.1 °C2 km/hS6 km/h1.1 1033 hPa-
27/01/2022 03:111.6 °C95 %1.1 °C5 km/hS10 km/h0.6 1034 hPa-
27/01/2022 03:011.5 °C95 %1.1 °C2 km/hS6 km/h1.1 1034 hPa-
27/01/2022 03:001.5 °C95 %1.1 °C3 km/hS10 km/h0.6 1034 hPa-
27/01/2022 02:461.4 °C95 %0.6 °C2 km/hS5 km/h1.1 1034 hPa-
27/01/2022 02:411.4 °C95 %0.6 °C3 km/hS10 km/h0.6 1034 hPa-
27/01/2022 02:311.3 °C95 %0.6 °C3 km/hS6 km/h0.0 1034 hPa-
27/01/2022 02:261.3 °C95 %0.6 °C6 km/hS10 km/h-0.6 1034 hPa-
27/01/2022 02:161.3 °C95 %0.6 °C3 km/hS6 km/h0.0 1034 hPa-
27/01/2022 02:111.3 °C95 %0.6 °C3 km/hS10 km/h0.0 1034 hPa-
27/01/2022 02:011.3 °C95 %0.6 °C3 km/hS6 km/h0.0 1034 hPa-
27/01/2022 02:001.3 °C95 %0.6 °C3 km/hS10 km/h0.0 1034 hPa-
27/01/2022 01:461.3 °C96 %0.6 °C3 km/hS5 km/h0.0 1034 hPa-
27/01/2022 01:411.3 °C96 %0.6 °C3 km/hS10 km/h0.0 1034 hPa-
27/01/2022 01:311.2 °C96 %0.6 °C2 km/hS6 km/h0.6 1034 hPa-
27/01/2022 01:261.3 °C96 %0.6 °C2 km/hS10 km/h0.6 1034 hPa-
27/01/2022 01:161.2 °C96 %0.6 °C3 km/hS6 km/h0.0 1034 hPa-
27/01/2022 01:111.2 °C95 %0.6 °C2 km/hS10 km/h0.6 1034 hPa-
27/01/2022 01:011.2 °C95 %0.6 °C3 km/hS5 km/h0.0 1034 hPa-
27/01/2022 01:001.1 °C95 %0.6 °C2 km/hS10 km/h0.6 1034 hPa-
27/01/2022 00:461.2 °C96 %0.6 °C3 km/hS5 km/h0.0 1034 hPa-
27/01/2022 00:411.3 °C96 %0.6 °C-S10 km/h1.1 1034 hPa-
27/01/2022 00:311.1 °C96 %0.6 °C-S10 km/h1.1 1034 hPa-
27/01/2022 00:261.1 °C96 %0.6 °C3 km/hS10 km/h0.0 1034 hPa-
27/01/2022 00:161.1 °C96 %0.6 °C3 km/hS6 km/h0.0 1034 hPa-
27/01/2022 00:111.1 °C96 %0.6 °C5 km/hS6 km/h0.0 1034 hPa-
27/01/2022 00:011.1 °C96 %0.6 °C-S6 km/h1.1 1035 hPa-
27/01/2022 00:001.1 °C95 %0.6 °C3 km/hS2 km/h0.0 1034 hPa-


Minima :

Température : 1.1 °C
Humidité : 94 %
Point de rosée : 0.6 °C
Vent moyen : 2 km/h
Windchill : -1.1
Pression atm. : 1033 hPa
Maxima :

Température : 2.4 °C
Humidité : 96 %
Point de rosée : 1.7 °C
Vent moyen : 11 km/h
Windchill : 1.7
Pression atm. : 1035 hPa
Rafales max : 16 km/h
Cumul de pluie sur 24H : 0 mm

Mainvilliers est une commune du département Eure-et-Loir (28).
La station météorologique du réseau de l'association la plus proche de Mainvilliers est celle de Chaudon
Site du propriétaire de la station : http://meteo28300.fr/



Icône Facebook Association Météo Centre Icône Twitter Association Météo Centre Icône Chaîne Youtube Association Météo Centre Icône contact Association Météo Centre Icône Insta Association Météo Centre